sensor_id;sensor_type;location;lat;lon;timestamp;pressure;altitude;pressure_sealevel;temperature
68745;BMP180;55731;45.456;11.064;2022-10-16T00:02:12;101195.40;;;17.94
68745;BMP180;55731;45.456;11.064;2022-10-16T00:04:49;101198.00;;;17.90
68745;BMP180;55731;45.456;11.064;2022-10-16T00:07:26;101200.60;;;17.90
68745;BMP180;55731;45.456;11.064;2022-10-16T00:10:04;101203.80;;;17.90
68745;BMP180;55731;45.456;11.064;2022-10-16T00:12:41;101201.60;;;17.80
68745;BMP180;55731;45.456;11.064;2022-10-16T00:15:18;101200.00;;;17.80
68745;BMP180;55731;45.456;11.064;2022-10-16T00:17:56;101197.20;;;17.80
68745;BMP180;55731;45.456;11.064;2022-10-16T00:20:34;101196.40;;;17.80
68745;BMP180;55731;45.456;11.064;2022-10-16T00:23:11;101197.60;;;17.80
68745;BMP180;55731;45.456;11.064;2022-10-16T00:25:56;101197.80;;;17.80
68745;BMP180;55731;45.456;11.064;2022-10-16T00:28:33;101197.80;;;17.78
68745;BMP180;55731;45.456;11.064;2022-10-16T00:31:11;101203.80;;;17.70
68745;BMP180;55731;45.456;11.064;2022-10-16T00:33:49;101205.00;;;17.70
68745;BMP180;55731;45.456;11.064;2022-10-16T00:36:27;101204.80;;;17.60
68745;BMP180;55731;45.456;11.064;2022-10-16T00:39:03;101203.00;;;17.60
68745;BMP180;55731;45.456;11.064;2022-10-16T00:41:40;101201.60;;;17.50
68745;BMP180;55731;45.456;11.064;2022-10-16T00:44:49;101206.20;;;17.50
68745;BMP180;55731;45.456;11.064;2022-10-16T00:47:34;101202.40;;;17.50
68745;BMP180;55731;45.456;11.064;2022-10-16T00:50:15;101197.20;;;17.48
68745;BMP180;55731;45.456;11.064;2022-10-16T00:52:53;101202.40;;;17.40
68745;BMP180;55731;45.456;11.064;2022-10-16T00:55:31;101204.60;;;17.40
68745;BMP180;55731;45.456;11.064;2022-10-16T00:58:14;101206.80;;;17.40
68745;BMP180;55731;45.456;11.064;2022-10-16T01:00:51;101205.80;;;17.40
68745;BMP180;55731;45.456;11.064;2022-10-16T01:03:35;101203.60;;;17.40
68745;BMP180;55731;45.456;11.064;2022-10-16T01:06:31;101202.80;;;17.34
68745;BMP180;55731;45.456;11.064;2022-10-16T01:09:23;101201.20;;;17.32
68745;BMP180;55731;45.456;11.064;2022-10-16T01:12:09;101197.60;;;17.40
68745;BMP180;55731;45.456;11.064;2022-10-16T01:14:55;101198.80;;;17.40
68745;BMP180;55731;45.456;11.064;2022-10-16T01:17:37;101199.60;;;17.38
68745;BMP180;55731;45.456;11.064;2022-10-16T01:20:27;101201.40;;;17.30
68745;BMP180;55731;45.456;11.064;2022-10-16T01:23:18;101202.80;;;17.30
68745;BMP180;55731;45.456;11.064;2022-10-16T01:26:23;101206.00;;;17.30
68745;BMP180;55731;45.456;11.064;2022-10-16T01:29:18;101203.00;;;17.30
68745;BMP180;55731;45.456;11.064;2022-10-16T01:32:02;101202.80;;;17.30
68745;BMP180;55731;45.456;11.064;2022-10-16T01:34:49;101202.60;;;17.30
68745;BMP180;55731;45.456;11.064;2022-10-16T01:37:36;101200.60;;;17.30
68745;BMP180;55731;45.456;11.064;2022-10-16T01:40:18;101198.40;;;17.30
68745;BMP180;55731;45.456;11.064;2022-10-16T01:42:59;101200.20;;;17.30
68745;BMP180;55731;45.456;11.064;2022-10-16T01:45:38;101202.80;;;17.30
68745;BMP180;55731;45.456;11.064;2022-10-16T01:48:21;101205.80;;;17.30
68745;BMP180;55731;45.456;11.064;2022-10-16T01:51:06;101208.60;;;17.30
68745;BMP180;55731;45.456;11.064;2022-10-16T01:53:45;101206.00;;;17.30
68745;BMP180;55731;45.456;11.064;2022-10-16T01:59:19;101213.40;;;17.30
68745;BMP180;55731;45.456;11.064;2022-10-16T02:02:01;101212.80;;;17.30
68745;BMP180;55731;45.456;11.064;2022-10-16T02:04:46;101208.60;;;17.20
68745;BMP180;55731;45.456;11.064;2022-10-16T02:07:24;101211.00;;;17.20
68745;BMP180;55731;45.456;11.064;2022-10-16T02:10:01;101208.60;;;17.20
68745;BMP180;55731;45.456;11.064;2022-10-16T02:12:42;101211.80;;;17.12
68745;BMP180;55731;45.456;11.064;2022-10-16T02:15:21;101211.60;;;17.10
68745;BMP180;55731;45.456;11.064;2022-10-16T02:17:57;101211.00;;;17.10
68745;BMP180;55731;45.456;11.064;2022-10-16T02:20:43;101215.00;;;17.10
68745;BMP180;55731;45.456;11.064;2022-10-16T02:23:30;101217.40;;;17.00
68745;BMP180;55731;45.456;11.064;2022-10-16T02:26:15;101217.80;;;17.00
68745;BMP180;55731;45.456;11.064;2022-10-16T02:29:02;101213.60;;;17.00
68745;BMP180;55731;45.456;11.064;2022-10-16T02:31:48;101220.00;;;17.00
68745;BMP180;55731;45.456;11.064;2022-10-16T02:34:32;101222.80;;;17.00
68745;BMP180;55731;45.456;11.064;2022-10-16T02:37:10;101222.60;;;17.00
68745;BMP180;55731;45.456;11.064;2022-10-16T02:39:47;101223.40;;;17.00
68745;BMP180;55731;45.456;11.064;2022-10-16T02:42:31;101222.20;;;17.00
68745;BMP180;55731;45.456;11.064;2022-10-16T02:45:15;101225.60;;;17.00
68745;BMP180;55731;45.456;11.064;2022-10-16T02:47:52;101225.20;;;17.00
68745;BMP180;55731;45.456;11.064;2022-10-16T02:50:28;101226.40;;;17.00
68745;BMP180;55731;45.456;11.064;2022-10-16T02:53:05;101225.20;;;17.00
68745;BMP180;55731;45.456;11.064;2022-10-16T02:55:42;101225.00;;;17.08
68745;BMP180;55731;45.456;11.064;2022-10-16T02:58:19;101222.60;;;17.10
68745;BMP180;55731;45.456;11.064;2022-10-16T03:00:56;101230.60;;;17.10
68745;BMP180;55731;45.456;11.064;2022-10-16T03:03:34;101234.40;;;17.10
68745;BMP180;55731;45.456;11.064;2022-10-16T03:06:11;101234.80;;;17.08
68745;BMP180;55731;45.456;11.064;2022-10-16T03:08:47;101235.20;;;17.00
68745;BMP180;55731;45.456;11.064;2022-10-16T03:11:25;101235.00;;;17.00
68745;BMP180;55731;45.456;11.064;2022-10-16T03:14:01;101235.20;;;17.00
68745;BMP180;55731;45.456;11.064;2022-10-16T03:16:38;101234.60;;;17.04
68745;BMP180;55731;45.456;11.064;2022-10-16T03:19:15;101234.60;;;17.08
68745;BMP180;55731;45.456;11.064;2022-10-16T03:21:52;101239.20;;;17.00
68745;BMP180;55731;45.456;11.064;2022-10-16T03:24:29;101239.60;;;17.00
68745;BMP180;55731;45.456;11.064;2022-10-16T03:27:06;101236.00;;;17.00
68745;BMP180;55731;45.456;11.064;2022-10-16T03:29:43;101234.40;;;16.96
68745;BMP180;55731;45.456;11.064;2022-10-16T03:32:20;101238.20;;;16.90
68745;BMP180;55731;45.456;11.064;2022-10-16T03:34:59;101238.60;;;16.90
68745;BMP180;55731;45.456;11.064;2022-10-16T03:37:35;101234.40;;;16.90
68745;BMP180;55731;45.456;11.064;2022-10-16T03:40:16;101239.20;;;17.00
68745;BMP180;55731;45.456;11.064;2022-10-16T03:42:53;101242.20;;;17.00
68745;BMP180;55731;45.456;11.064;2022-10-16T03:45:32;101242.60;;;17.00
68745;BMP180;55731;45.456;11.064;2022-10-16T03:48:10;101237.00;;;16.94
68745;BMP180;55731;45.456;11.064;2022-10-16T03:50:47;101239.00;;;16.90
68745;BMP180;55731;45.456;11.064;2022-10-16T03:53:25;101241.60;;;16.90
68745;BMP180;55731;45.456;11.064;2022-10-16T03:56:02;101244.60;;;16.80
68745;BMP180;55731;45.456;11.064;2022-10-16T03:58:39;101242.40;;;16.80
68745;BMP180;55731;45.456;11.064;2022-10-16T04:01:16;101242.00;;;16.80
68745;BMP180;55731;45.456;11.064;2022-10-16T04:03:52;101240.20;;;16.82
68745;BMP180;55731;45.456;11.064;2022-10-16T04:06:30;101240.20;;;16.82
68745;BMP180;55731;45.456;11.064;2022-10-16T04:09:07;101238.40;;;16.90
68745;BMP180;55731;45.456;11.064;2022-10-16T04:11:43;101239.80;;;16.90
68745;BMP180;55731;45.456;11.064;2022-10-16T04:14:20;101239.40;;;16.90
68745;BMP180;55731;45.456;11.064;2022-10-16T04:16:57;101243.60;;;16.80
68745;BMP180;55731;45.456;11.064;2022-10-16T04:19:34;101242.40;;;16.80
68745;BMP180;55731;45.456;11.064;2022-10-16T04:22:11;101246.20;;;16.80
68745;BMP180;55731;45.456;11.064;2022-10-16T04:24:47;101245.60;;;16.80
68745;BMP180;55731;45.456;11.064;2022-10-16T04:27:25;101251.00;;;16.80
68745;BMP180;55731;45.456;11.064;2022-10-16T04:30:02;101250.60;;;16.80
68745;BMP180;55731;45.456;11.064;2022-10-16T04:32:39;101250.60;;;16.80
68745;BMP180;55731;45.456;11.064;2022-10-16T04:35:16;101253.20;;;16.80
68745;BMP180;55731;45.456;11.064;2022-10-16T04:37:53;101254.00;;;16.80
68745;BMP180;55731;45.456;11.064;2022-10-16T04:40:29;101259.80;;;16.80
68745;BMP180;55731;45.456;11.064;2022-10-16T04:43:10;101265.80;;;16.70
68745;BMP180;55731;45.456;11.064;2022-10-16T04:45:46;101268.80;;;16.70
68745;BMP180;55731;45.456;11.064;2022-10-16T04:48:24;101270.20;;;16.70
68745;BMP180;55731;45.456;11.064;2022-10-16T04:51:01;101269.80;;;16.74
68745;BMP180;55731;45.456;11.064;2022-10-16T04:53:38;101274.20;;;16.80
68745;BMP180;55731;45.456;11.064;2022-10-16T04:56:14;101270.00;;;16.80
68745;BMP180;55731;45.456;11.064;2022-10-16T04:58:51;101275.20;;;16.80
68745;BMP180;55731;45.456;11.064;2022-10-16T05:01:28;101277.20;;;16.78
68745;BMP180;55731;45.456;11.064;2022-10-16T05:04:05;101279.60;;;16.72
68745;BMP180;55731;45.456;11.064;2022-10-16T05:06:42;101281.20;;;16.80
68745;BMP180;55731;45.456;11.064;2022-10-16T05:09:19;101283.80;;;16.80
68745;BMP180;55731;45.456;11.064;2022-10-16T05:11:56;101287.00;;;16.80
68745;BMP180;55731;45.456;11.064;2022-10-16T05:14:34;101293.60;;;16.88
68745;BMP180;55731;45.456;11.064;2022-10-16T05:17:11;101291.60;;;16.90
68745;BMP180;55731;45.456;11.064;2022-10-16T05:19:47;101293.20;;;16.90
68745;BMP180;55731;45.456;11.064;2022-10-16T05:22:23;101296.80;;;16.90
68745;BMP180;55731;45.456;11.064;2022-10-16T05:25:00;101291.40;;;16.90
68745;BMP180;55731;45.456;11.064;2022-10-16T05:27:36;101288.80;;;16.90
68745;BMP180;55731;45.456;11.064;2022-10-16T05:30:17;101292.20;;;16.90
68745;BMP180;55731;45.456;11.064;2022-10-16T05:32:54;101290.40;;;16.92
68745;BMP180;55731;45.456;11.064;2022-10-16T05:35:30;101293.40;;;16.98
68745;BMP180;55731;45.456;11.064;2022-10-16T05:38:07;101294.00;;;16.90
68745;BMP180;55731;45.456;11.064;2022-10-16T05:40:43;101296.80;;;16.90
68745;BMP180;55731;45.456;11.064;2022-10-16T05:43:27;101296.00;;;16.92
68745;BMP180;55731;45.456;11.064;2022-10-16T05:46:05;101302.20;;;16.98
68745;BMP180;55731;45.456;11.064;2022-10-16T05:48:42;101300.20;;;17.00
68745;BMP180;55731;45.456;11.064;2022-10-16T05:51:18;101307.60;;;17.00
68745;BMP180;55731;45.456;11.064;2022-10-16T05:53:56;101309.60;;;17.00
68745;BMP180;55731;45.456;11.064;2022-10-16T05:56:33;101308.20;;;16.90
68745;BMP180;55731;45.456;11.064;2022-10-16T05:59:09;101313.20;;;16.90
68745;BMP180;55731;45.456;11.064;2022-10-16T06:01:47;101317.20;;;16.80
68745;BMP180;55731;45.456;11.064;2022-10-16T06:04:23;101320.40;;;16.70
68745;BMP180;55731;45.456;11.064;2022-10-16T06:07:02;101322.00;;;16.70
68745;BMP180;55731;45.456;11.064;2022-10-16T06:09:39;101323.80;;;16.60
68745;BMP180;55731;45.456;11.064;2022-10-16T06:12:15;101326.40;;;16.60
68745;BMP180;55731;45.456;11.064;2022-10-16T06:14:51;101333.80;;;16.60
68745;BMP180;55731;45.456;11.064;2022-10-16T06:17:28;101333.00;;;16.60
68745;BMP180;55731;45.456;11.064;2022-10-16T06:20:06;101335.60;;;16.60
68745;BMP180;55731;45.456;11.064;2022-10-16T06:22:44;101337.00;;;16.60
68745;BMP180;55731;45.456;11.064;2022-10-16T06:25:21;101340.00;;;16.60
68745;BMP180;55731;45.456;11.064;2022-10-16T06:27:57;101338.80;;;16.60
68745;BMP180;55731;45.456;11.064;2022-10-16T06:30:34;101343.20;;;16.70
68745;BMP180;55731;45.456;11.064;2022-10-16T06:33:11;101349.20;;;16.72
68745;BMP180;55731;45.456;11.064;2022-10-16T06:35:48;101351.80;;;16.80
68745;BMP180;55731;45.456;11.064;2022-10-16T06:38:25;101356.60;;;16.90
68745;BMP180;55731;45.456;11.064;2022-10-16T06:41:01;101365.40;;;17.00
68745;BMP180;55731;45.456;11.064;2022-10-16T06:43:38;101366.20;;;17.02
68745;BMP180;55731;45.456;11.064;2022-10-16T06:46:18;101376.40;;;17.10
68745;BMP180;55731;45.456;11.064;2022-10-16T06:48:55;101378.80;;;17.10
68745;BMP180;55731;45.456;11.064;2022-10-16T06:51:31;101386.40;;;17.20
68745;BMP180;55731;45.456;11.064;2022-10-16T06:54:14;101387.40;;;17.20
68745;BMP180;55731;45.456;11.064;2022-10-16T06:56:52;101390.60;;;17.26
68745;BMP180;55731;45.456;11.064;2022-10-16T06:59:29;101397.60;;;17.32
68745;BMP180;55731;45.456;11.064;2022-10-16T07:02:07;101397.80;;;17.40
68745;BMP180;55731;45.456;11.064;2022-10-16T07:04:44;101399.80;;;17.40
68745;BMP180;55731;45.456;11.064;2022-10-16T07:07:22;101401.00;;;17.50
68745;BMP180;55731;45.456;11.064;2022-10-16T07:10:01;101407.60;;;17.50
68745;BMP180;55731;45.456;11.064;2022-10-16T07:12:36;101411.00;;;17.50
68745;BMP180;55731;45.456;11.064;2022-10-16T07:15:15;101415.00;;;17.50
68745;BMP180;55731;45.456;11.064;2022-10-16T07:17:52;101417.20;;;17.50
68745;BMP180;55731;45.456;11.064;2022-10-16T07:20:29;101425.60;;;17.50
68745;BMP180;55731;45.456;11.064;2022-10-16T07:23:05;101432.00;;;17.60
68745;BMP180;55731;45.456;11.064;2022-10-16T07:25:42;101439.40;;;17.60
68745;BMP180;55731;45.456;11.064;2022-10-16T07:28:18;101444.80;;;17.70
68745;BMP180;55731;45.456;11.064;2022-10-16T07:30:55;101447.00;;;17.70
68745;BMP180;55731;45.456;11.064;2022-10-16T07:33:31;101447.40;;;17.80
68745;BMP180;55731;45.456;11.064;2022-10-16T07:36:10;101451.00;;;17.80
68745;BMP180;55731;45.456;11.064;2022-10-16T07:38:49;101457.40;;;17.80
68745;BMP180;55731;45.456;11.064;2022-10-16T07:41:31;101458.00;;;17.90
68745;BMP180;55731;45.456;11.064;2022-10-16T07:44:11;101463.40;;;17.90
68745;BMP180;55731;45.456;11.064;2022-10-16T07:46:47;101464.20;;;18.00
68745;BMP180;55731;45.456;11.064;2022-10-16T07:49:23;101466.20;;;18.00
68745;BMP180;55731;45.456;11.064;2022-10-16T07:52:00;101469.80;;;18.10
68745;BMP180;55731;45.456;11.064;2022-10-16T07:54:37;101480.20;;;18.20
68745;BMP180;55731;45.456;11.064;2022-10-16T07:57:13;101482.00;;;18.20
68745;BMP180;55731;45.456;11.064;2022-10-16T07:59:52;101480.20;;;18.20
68745;BMP180;55731;45.456;11.064;2022-10-16T08:02:29;101483.60;;;18.28
68745;BMP180;55731;45.456;11.064;2022-10-16T08:05:09;101484.40;;;18.30
68745;BMP180;55731;45.456;11.064;2022-10-16T08:07:51;101484.40;;;18.32
68745;BMP180;55731;45.456;11.064;2022-10-16T08:10:29;101485.60;;;18.40
68745;BMP180;55731;45.456;11.064;2022-10-16T08:13:06;101490.00;;;18.40
68745;BMP180;55731;45.456;11.064;2022-10-16T08:15:43;101493.00;;;18.46
68745;BMP180;55731;45.456;11.064;2022-10-16T08:18:19;101497.80;;;18.50
68745;BMP180;55731;45.456;11.064;2022-10-16T08:21:01;101496.20;;;18.50
68745;BMP180;55731;45.456;11.064;2022-10-16T08:23:38;101495.80;;;18.50
68745;BMP180;55731;45.456;11.064;2022-10-16T08:26:15;101501.40;;;18.56
68745;BMP180;55731;45.456;11.064;2022-10-16T08:28:56;101497.80;;;18.60
68745;BMP180;55731;45.456;11.064;2022-10-16T08:31:32;101501.40;;;18.70
68745;BMP180;55731;45.456;11.064;2022-10-16T08:34:09;101497.00;;;18.80
68745;BMP180;55731;45.456;11.064;2022-10-16T08:36:46;101498.20;;;18.90
68745;BMP180;55731;45.456;11.064;2022-10-16T08:39:23;101499.80;;;19.00
68745;BMP180;55731;45.456;11.064;2022-10-16T08:42:16;101498.80;;;19.10
68745;BMP180;55731;45.456;11.064;2022-10-16T08:45:38;101500.00;;;19.20
68745;BMP180;55731;45.456;11.064;2022-10-16T08:48:34;101496.80;;;19.30
68745;BMP180;55731;45.456;11.064;2022-10-16T08:51:15;101497.20;;;19.40
68745;BMP180;55731;45.456;11.064;2022-10-16T08:53:59;101500.40;;;19.50
68745;BMP180;55731;45.456;11.064;2022-10-16T08:56:38;101501.40;;;19.60
68745;BMP180;55731;45.456;11.064;2022-10-16T08:59:18;101503.40;;;19.62
68745;BMP180;55731;45.456;11.064;2022-10-16T09:01:56;101499.60;;;19.70
68745;BMP180;55731;45.456;11.064;2022-10-16T09:07:52;101495.40;;;19.80
68745;BMP180;55731;45.456;11.064;2022-10-16T09:10:46;101501.00;;;19.90
68745;BMP180;55731;45.456;11.064;2022-10-16T09:13:35;101500.80;;;19.98
68745;BMP180;55731;45.456;11.064;2022-10-16T09:16:22;101503.20;;;20.04
68745;BMP180;55731;45.456;11.064;2022-10-16T09:19:12;101499.60;;;20.10
68745;BMP180;55731;45.456;11.064;2022-10-16T09:21:51;101501.20;;;20.18
68745;BMP180;55731;45.456;11.064;2022-10-16T09:24:29;101501.00;;;20.20
68745;BMP180;55731;45.456;11.064;2022-10-16T09:27:08;101498.60;;;20.30
68745;BMP180;55731;45.456;11.064;2022-10-16T09:29:46;101494.80;;;20.40
68745;BMP180;55731;45.456;11.064;2022-10-16T09:32:24;101497.20;;;20.40
68745;BMP180;55731;45.456;11.064;2022-10-16T09:35:01;101498.20;;;20.50
68745;BMP180;55731;45.456;11.064;2022-10-16T09:37:37;101497.80;;;20.60
68745;BMP180;55731;45.456;11.064;2022-10-16T09:40:31;101501.00;;;20.60
68745;BMP180;55731;45.456;11.064;2022-10-16T09:46:30;101495.40;;;20.84
68745;BMP180;55731;45.456;11.064;2022-10-16T09:49:22;101491.60;;;20.90
68745;BMP180;55731;45.456;11.064;2022-10-16T09:52:14;101493.00;;;20.90
68745;BMP180;55731;45.456;11.064;2022-10-16T09:54:57;101492.40;;;21.00
68745;BMP180;55731;45.456;11.064;2022-10-16T09:57:34;101491.40;;;21.04
68745;BMP180;55731;45.456;11.064;2022-10-16T10:00:18;101492.40;;;21.10
68745;BMP180;55731;45.456;11.064;2022-10-16T10:02:55;101489.80;;;21.20
68745;BMP180;55731;45.456;11.064;2022-10-16T10:05:33;101489.00;;;21.30
68745;BMP180;55731;45.456;11.064;2022-10-16T10:08:17;101488.00;;;21.30
68745;BMP180;55731;45.456;11.064;2022-10-16T10:10:55;101489.20;;;21.40
68745;BMP180;55731;45.456;11.064;2022-10-16T10:13:31;101487.60;;;21.50
68745;BMP180;55731;45.456;11.064;2022-10-16T10:16:10;101485.60;;;21.50
68745;BMP180;55731;45.456;11.064;2022-10-16T10:19:03;101487.40;;;21.60
68745;BMP180;55731;45.456;11.064;2022-10-16T10:21:44;101481.60;;;21.70
68745;BMP180;55731;45.456;11.064;2022-10-16T10:24:21;101479.40;;;21.78
68745;BMP180;55731;45.456;11.064;2022-10-16T10:27:06;101482.20;;;21.80
68745;BMP180;55731;45.456;11.064;2022-10-16T10:29:56;101478.60;;;21.90
68745;BMP180;55731;45.456;11.064;2022-10-16T10:32:48;101476.40;;;21.94
68745;BMP180;55731;45.456;11.064;2022-10-16T10:35:41;101475.60;;;22.00
